Time;durP1;ratioP1;P1;durP2;ratioP2;P2;SDS_P1;SDS_P2;PMS_P1;PMS_P2;Temp;Humidity;BMP_temperature;BMP_pressure;BME280_temperature;BME280_humidity;BME280_pressure;Samples;Min_cycle;Max_cycle;Signal;HPM_P1;HPM_P2
2022/05/12 00:00:30;;;;;;;4.85;1.92;;;9.20;93.40;;;;;;5111522;28;20043;-44
2022/05/12 00:02:56;;;;;;;6.25;1.85;;;9.20;93.70;;;;;;5109963;28;20020;-40
2022/05/12 00:05:22;;;;;;;7.75;1.98;;;9.30;94.00;;;;;;5111410;28;20539;-53
2022/05/12 00:07:48;;;;;;;7.90;2.40;;;9.30;93.90;;;;;;5111361;28;20102;-47
2022/05/12 00:10:17;;;;;;;3.70;1.70;;;9.30;93.70;;;;;;5111287;28;20480;-54
2022/05/12 00:12:43;;;;;;;8.13;2.07;;;9.30;93.10;;;;;;5111188;28;20476;-48
2022/05/12 00:15:14;;;;;;;5.20;1.80;;;9.30;92.80;;;;;;5106958;28;20064;-55
2022/05/12 00:17:41;;;;;;;4.60;2.20;;;9.30;92.90;;;;;;5090881;28;20031;-51
2022/05/12 00:20:08;;;;;;;8.45;2.40;;;9.20;93.00;;;;;;5090728;28;20384;-52
2022/05/12 00:22:34;;;;;;;5.00;1.85;;;9.20;93.40;;;;;;5090881;28;20411;-54
2022/05/12 00:24:59;;;;;;;6.55;2.25;;;9.20;93.50;;;;;;5090668;28;20024;-46
2022/05/12 00:27:25;;;;;;;3.78;2.03;;;9.20;93.80;;;;;;5090698;28;20024;-53
2022/05/12 00:29:51;;;;;;;3.28;1.73;;;9.20;94.00;;;;;;5091330;28;20050;-41
2022/05/12 00:32:17;;;;;;;6.70;2.60;;;9.30;93.80;;;;;;5094441;28;20043;-55
2022/05/12 00:34:42;;;;;;;7.18;2.47;;;9.30;93.20;;;;;;5094242;28;20087;-50
2022/05/12 00:37:08;;;;;;;4.93;2.28;;;9.20;92.50;;;;;;5094517;28;20039;-45
2022/05/12 00:39:34;;;;;;;6.05;2.08;;;9.10;92.40;;;;;;5094230;28;20453;-53
2022/05/12 00:42:00;;;;;;;8.68;2.15;;;9.10;92.50;;;;;;5093059;28;20020;-49
2022/05/12 00:44:26;;;;;;;5.90;2.10;;;9.00;92.60;;;;;;5094205;28;20384;-62
2022/05/12 00:46:53;;;;;;;6.10;2.10;;;8.90;93.00;;;;;;5109274;28;20020;-50
2022/05/12 00:49:31;;;;;;;6.25;2.20;;;8.90;93.50;;;;;;5113261;28;20020;-54
2022/05/12 00:52:08;;;;;;;3.85;2.20;;;8.90;93.90;;;;;;5113261;28;20054;-51
2022/05/12 00:54:54;;;;;;;6.72;2.10;;;8.90;93.90;;;;;;5114507;28;20051;-48
2022/05/12 00:57:28;;;;;;;6.07;1.98;;;8.90;93.70;;;;;;5114395;27;20112;-48
2022/05/12 00:59:54;;;;;;;4.68;1.80;;;8.90;93.50;;;;;;5114275;28;20016;-45
2022/05/12 01:02:20;;;;;;;5.05;1.90;;;8.90;93.30;;;;;;5114228;28;20039;-53
2022/05/12 01:04:48;;;;;;;5.90;2.28;;;8.90;93.30;;;;;;5112871;28;20051;-56
2022/05/12 01:07:15;;;;;;;5.38;2.30;;;8.90;93.30;;;;;;5114170;28;20020;-56
2022/05/12 01:09:41;;;;;;;7.43;2.67;;;8.80;93.80;;;;;;5114111;28;20075;-51
2022/05/12 01:12:07;;;;;;;4.75;2.10;;;8.90;93.90;;;;;;5114040;28;20024;-45
2022/05/12 01:14:33;;;;;;;4.45;2.10;;;8.80;93.80;;;;;;5112946;28;20023;-52
2022/05/12 01:17:01;;;;;;;10.70;1.95;;;8.90;93.70;;;;;;5093492;28;20051;-46
2022/05/12 01:19:33;;;;;;;5.00;1.90;;;8.80;93.40;;;;;;5093491;28;20031;-49
2022/05/12 01:22:00;;;;;;;3.15;1.65;;;8.70;93.20;;;;;;5093509;28;20024;-61
2022/05/12 01:24:46;;;;;;;3.97;1.83;;;8.70;93.00;;;;;;5093388;28;20737;-60
2022/05/12 01:27:19;;;;;;;6.53;2.25;;;8.60;92.90;;;;;;5093123;28;20500;-50
2022/05/12 01:29:53;;;;;;;5.25;1.92;;;8.60;93.10;;;;;;5093318;28;20062;-54
2022/05/12 01:32:20;;;;;;;5.45;2.33;;;8.50;93.50;;;;;;5093259;28;20076;-54
2022/05/12 01:34:47;;;;;;;4.28;2.13;;;8.50;93.80;;;;;;5084560;28;20101;-51
2022/05/12 01:37:13;;;;;;;5.32;2.22;;;8.50;93.90;;;;;;5072972;28;20035;-55
2022/05/12 01:39:39;;;;;;;4.93;2.13;;;8.40;93.50;;;;;;5072850;28;20025;-53
2022/05/12 01:42:07;;;;;;;4.75;2.15;;;8.40;93.30;;;;;;5072637;28;20740;-53
2022/05/12 01:44:34;;;;;;;4.10;2.08;;;8.40;93.10;;;;;;5074306;28;20032;-58
2022/05/12 01:47:00;;;;;;;5.53;2.15;;;8.40;93.20;;;;;;5111694;28;20397;-56
2022/05/12 01:49:25;;;;;;;6.82;2.50;;;8.40;94.10;;;;;;5113529;28;20028;-51
2022/05/12 01:51:53;;;;;;;6.47;2.58;;;8.40;94.60;;;;;;5113570;28;20020;-58
2022/05/12 01:54:19;;;;;;;5.32;2.05;;;8.40;94.70;;;;;;5113332;28;20023;-56
2022/05/12 01:56:45;;;;;;;4.28;1.80;;;8.50;94.40;;;;;;5113090;28;20392;-60
2022/05/12 01:59:10;;;;;;;4.30;1.50;;;8.50;93.60;;;;;;5113261;28;20019;-43
2022/05/12 02:01:36;;;;;;;1.52;1.08;;;8.40;92.80;;;;;;5113080;28;20027;-50
2022/05/12 02:04:02;;;;;;;4.22;1.40;;;8.40;92.70;;;;;;5113182;28;20011;-56
2022/05/12 02:06:28;;;;;;;3.53;1.55;;;8.20;92.50;;;;;;5113167;28;20110;-41
2022/05/12 02:08:53;;;;;;;4.90;1.70;;;8.10;92.90;;;;;;5113011;28;20115;-56
2022/05/12 02:11:19;;;;;;;3.30;1.55;;;8.00;93.30;;;;;;5111550;28;20039;-54
2022/05/12 02:13:45;;;;;;;3.38;1.73;;;8.00;93.40;;;;;;5111640;28;20012;-57
2022/05/12 02:16:10;;;;;;;4.65;1.95;;;7.90;93.50;;;;;;5095933;28;20040;-56
2022/05/12 02:18:37;;;;;;;3.05;1.30;;;7.90;93.40;;;;;;5092703;28;20512;-39
2022/05/12 02:21:02;;;;;;;3.95;1.60;;;7.80;93.30;;;;;;5093577;28;20020;-44
2022/05/12 02:23:28;;;;;;;3.22;1.67;;;7.70;93.30;;;;;;5091071;28;20392;-48
2022/05/12 02:25:54;;;;;;;4.00;1.80;;;7.70;93.30;;;;;;5092254;28;20115;-50
2022/05/12 02:28:19;;;;;;;4.45;1.90;;;7.70;93.30;;;;;;5092114;28;20020;-46
2022/05/12 02:30:45;;;;;;;3.47;1.63;;;7.60;93.70;;;;;;5090974;28;20025;-50
2022/05/12 02:33:11;;;;;;;3.50;2.05;;;7.60;93.80;;;;;;5091994;28;20021;-48
2022/05/12 02:35:38;;;;;;;5.88;2.15;;;7.60;93.90;;;;;;5090847;28;20132;-52
2022/05/12 02:38:06;;;;;;;4.03;1.85;;;7.60;93.90;;;;;;5092088;28;20415;-53
2022/05/12 02:40:31;;;;;;;3.85;2.05;;;7.70;94.00;;;;;;5091971;28;20422;-54
2022/05/12 02:42:57;;;;;;;4.20;2.03;;;7.60;93.70;;;;;;5092044;28;20039;-51
2022/05/12 02:45:24;;;;;;;5.80;2.10;;;7.60;93.60;;;;;;5101570;28;20030;-50
2022/05/12 02:47:50;;;;;;;5.05;1.90;;;7.60;93.50;;;;;;5112462;28;20084;-49
2022/05/12 02:50:18;;;;;;;4.65;2.03;;;7.60;93.70;;;;;;5101531;28;20439;-56
2022/05/12 02:52:43;;;;;;;7.40;2.30;;;7.60;93.90;;;;;;5091081;28;20024;-59
2022/05/12 02:55:10;;;;;;;5.60;2.33;;;7.60;93.90;;;;;;5091676;28;20081;-51
2022/05/12 02:57:36;;;;;;;5.65;2.78;;;7.60;93.80;;;;;;5091664;28;20546;-50
2022/05/12 03:00:06;;;;;;;5.43;2.40;;;7.60;94.10;;;;;;5091812;28;20020;-57
2022/05/12 03:02:32;;;;;;;5.18;1.90;;;7.60;93.90;;;;;;5091510;28;20054;-59
2022/05/12 03:04:57;;;;;;;4.13;2.05;;;7.50;93.60;;;;;;5091644;28;20028;-51
2022/05/12 03:07:23;;;;;;;4.75;1.95;;;7.50;93.20;;;;;;5091566;28;20054;-54
2022/05/12 03:09:49;;;;;;;4.38;1.83;;;7.50;93.20;;;;;;5091422;28;20024;-46
2022/05/12 03:12:14;;;;;;;4.55;1.80;;;7.40;93.30;;;;;;5091485;28;20028;-41
2022/05/12 03:14:40;;;;;;;4.20;2.10;;;7.40;93.40;;;;;;5097396;28;20064;-60
2022/05/12 03:17:06;;;;;;;6.20;2.40;;;7.30;93.50;;;;;;5110585;28;20035;-59
2022/05/12 03:19:31;;;;;;;4.38;2.35;;;7.40;93.90;;;;;;5111811;28;20019;-54
2022/05/12 03:21:58;;;;;;;8.35;2.40;;;7.40;93.80;;;;;;5111738;28;20426;-54
2022/05/12 03:24:23;;;;;;;4.85;2.10;;;7.40;93.70;;;;;;5111626;28;20103;-59
2022/05/12 03:26:49;;;;;;;4.95;2.05;;;7.40;93.60;;;;;;5110457;28;20115;-55
2022/05/12 03:29:15;;;;;;;4.47;1.85;;;7.30;93.60;;;;;;5111870;28;20028;-50
2022/05/12 03:31:41;;;;;;;6.72;2.60;;;7.30;93.60;;;;;;5111899;28;20024;-53
2022/05/12 03:34:06;;;;;;;6.07;2.80;;;7.30;93.70;;;;;;5111585;28;20047;-52
2022/05/12 03:36:39;;;;;;;4.15;2.20;;;7.20;93.80;;;;;;5111610;28;20035;-54
2022/05/12 03:39:05;;;;;;;6.90;2.63;;;7.20;94.00;;;;;;5110360;28;20077;-49
2022/05/12 03:41:31;;;;;;;5.60;2.20;;;7.30;94.10;;;;;;5111600;28;20071;-44
2022/05/12 03:46:41;;;;;;;4.38;1.80;;;7.20;93.70;;;;;;5091933;28;20039;-49
2022/05/12 03:49:07;;;;;;;5.45;2.17;;;7.20;93.40;;;;;;5091121;28;20021;-51
2022/05/12 03:51:33;;;;;;;4.47;1.80;;;7.10;93.20;;;;;;5091040;28;20392;-50
2022/05/12 03:53:59;;;;;;;3.17;1.83;;;7.10;93.20;;;;;;5091067;28;20527;-54
2022/05/12 03:56:26;;;;;;;5.00;2.03;;;7.00;93.40;;;;;;5090987;28;20028;-44
2022/05/12 03:58:51;;;;;;;3.20;1.90;;;7.00;93.70;;;;;;5091211;28;20042;-43
2022/05/12 04:01:17;;;;;;;6.82;2.50;;;7.00;93.90;;;;;;5091184;28;20024;-51
2022/05/12 04:03:45;;;;;;;4.28;2.20;;;7.00;94.10;;;;;;5091312;28;20426;-55
2022/05/12 04:06:11;;;;;;;4.88;1.98;;;7.00;94.00;;;;;;5095155;28;20028;-58
2022/05/12 04:08:37;;;;;;;3.13;1.73;;;6.90;93.70;;;;;;5095091;28;20028;-48
2022/05/12 04:11:03;;;;;;;2.60;1.70;;;6.90;93.50;;;;;;5076732;28;20069;-46
2022/05/12 04:13:29;;;;;;;2.92;1.77;;;6.90;93.60;;;;;;5094933;28;20054;-46
2022/05/12 04:15:54;;;;;;;5.38;2.17;;;6.90;93.50;;;;;;5113126;28;20075;-49
2022/05/12 04:18:20;;;;;;;3.35;1.80;;;6.90;93.50;;;;;;5115303;28;20029;-48
2022/05/12 04:20:46;;;;;;;4.72;2.20;;;6.90;93.60;;;;;;5111656;28;20040;-47
2022/05/12 04:23:11;;;;;;;6.40;2.50;;;6.90;93.60;;;;;;5094825;28;20036;-47
2022/05/12 04:25:37;;;;;;;5.93;2.50;;;6.90;93.70;;;;;;5095058;28;20035;-51
2022/05/12 04:28:04;;;;;;;4.70;2.40;;;6.90;93.50;;;;;;5093517;28;20477;-48
2022/05/12 04:30:30;;;;;;;6.85;2.70;;;6.90;93.50;;;;;;5094628;28;20101;-49
2022/05/12 04:35:11;;;;;;;7.07;2.78;;;6.80;93.60;;;;;;5094698;28;20020;-46
2022/05/12 04:35:42;;;;;;;3.75;2.10;;;6.80;93.70;;;;;;5094600;28;20036;-53
2022/05/12 04:38:07;;;;;;;4.50;2.00;;;6.80;93.70;;;;;;5094762;28;20028;-44
2022/05/12 04:40:33;;;;;;;7.47;2.30;;;6.80;93.60;;;;;;5094644;28;20028;-50
2022/05/12 04:43:00;;;;;;;4.90;2.28;;;6.90;93.70;;;;;;5094375;28;20366;-54
2022/05/12 04:45:28;;;;;;;6.00;2.40;;;6.90;93.70;;;;;;5094393;28;20059;-52
2022/05/12 04:47:54;;;;;;;5.82;2.90;;;6.90;93.60;;;;;;5094428;28;20020;-46
2022/05/12 04:50:24;;;;;;;5.57;2.45;;;6.90;93.60;;;;;;5094075;28;20400;-54
2022/05/12 04:52:49;;;;;;;6.43;2.95;;;6.90;93.60;;;;;;5095820;28;20024;-56
2022/05/12 04:55:16;;;;;;;7.28;2.90;;;6.90;93.60;;;;;;5094060;28;20036;-55
2022/05/12 04:57:45;;;;;;;10.73;3.67;;;6.90;93.80;;;;;;5094144;28;20028;-56
2022/05/12 05:00:18;;;;;;;5.78;2.40;;;7.00;93.80;;;;;;5092637;28;20024;-53
2022/05/12 05:02:44;;;;;;;4.70;2.20;;;7.00;93.70;;;;;;5093913;28;20016;-58
2022/05/12 05:05:10;;;;;;;5.65;2.60;;;7.00;93.50;;;;;;5093923;28;20028;-50
2022/05/12 05:07:37;;;;;;;5.85;2.25;;;7.10;93.70;;;;;;5093784;28;20028;-51
2022/05/12 05:10:03;;;;;;;5.35;2.30;;;7.10;93.60;;;;;;5093940;28;20020;-51
2022/05/12 05:12:29;;;;;;;6.80;2.80;;;7.10;93.30;;;;;;5109185;28;20031;-53
2022/05/12 05:14:55;;;;;;;6.78;2.72;;;7.10;93.50;;;;;;5113534;28;20028;-54
2022/05/12 05:17:22;;;;;;;5.13;2.58;;;7.20;93.50;;;;;;5113321;28;20070;-50
2022/05/12 05:19:48;;;;;;;4.40;2.20;;;7.30;93.20;;;;;;5112751;28;20110;-56
2022/05/12 05:22:13;;;;;;;4.45;2.30;;;7.30;93.10;;;;;;5113953;28;20503;-60
2022/05/12 05:24:39;;;;;;;4.10;2.40;;;7.40;93.00;;;;;;5113986;28;20020;-48
2022/05/12 05:27:06;;;;;;;6.85;2.78;;;7.40;93.30;;;;;;5113977;28;20024;-56
2022/05/12 05:29:32;;;;;;;4.97;2.97;;;7.50;93.50;;;;;;5113759;27;20392;-51
2022/05/12 05:31:57;;;;;;;8.90;3.28;;;7.60;93.70;;;;;;5113768;28;20038;-48
2022/05/12 05:34:23;;;;;;;5.35;2.53;;;7.70;93.70;;;;;;5113534;28;20043;-43
2022/05/12 05:36:49;;;;;;;4.25;2.60;;;7.80;93.80;;;;;;5113634;28;20047;-37
2022/05/12 05:39:24;;;;;;;5.47;3.10;;;7.90;93.80;;;;;;5113673;28;20034;-37
2022/05/12 05:41:52;;;;;;;6.35;2.90;;;8.10;93.70;;;;;;5103601;27;20111;-52
2022/05/12 05:44:18;;;;;;;8.48;2.67;;;8.50;93.40;;;;;;5093089;28;20062;-43
2022/05/12 05:46:43;;;;;;;6.20;2.70;;;9.00;93.30;;;;;;5093155;28;20039;-43
2022/05/12 05:49:09;;;;;;;6.35;2.70;;;9.70;92.50;;;;;;5092949;28;20016;-38
2022/05/12 05:54:20;;;;;;;6.15;2.85;;;11.10;87.40;;;;;;5092878;28;20090;-50
2022/05/12 05:56:47;;;;;;;6.22;2.42;;;12.00;87.60;;;;;;5092950;28;20032;-47
2022/05/12 05:59:14;;;;;;;8.52;2.50;;;12.70;84.30;;;;;;5087477;28;20019;-47
2022/05/12 06:01:39;;;;;;;6.75;2.00;;;13.40;78.80;;;;;;5081842;28;20036;-56
2022/05/12 06:04:05;;;;;;;5.65;2.30;;;14.20;78.90;;;;;;5078190;28;20107;-60
2022/05/12 06:06:31;;;;;;;2.95;1.40;;;15.00;75.20;;;;;;5074104;28;20032;-48
2022/05/12 06:08:57;;;;;;;4.97;2.10;;;15.40;72.20;;;;;;5079486;28;20013;-57
2022/05/12 06:11:23;;;;;;;5.78;2.00;;;15.70;71.10;;;;;;5082318;28;20023;-52
2022/05/12 06:13:48;;;;;;;8.20;2.63;;;16.10;70.50;;;;;;5111452;28;20080;-55
2022/05/12 06:16:16;;;;;;;3.72;1.83;;;16.60;68.30;;;;;;5083675;28;20092;-45
2022/05/12 06:18:42;;;;;;;5.88;2.13;;;17.10;69.70;;;;;;5072257;28;20033;-49
2022/05/12 06:21:12;;;;;;;7.40;2.10;;;17.60;68.10;;;;;;5073494;28;20517;-52
2022/05/12 06:23:38;;;;;;;8.32;2.45;;;18.10;64.20;;;;;;5078064;28;20158;-49
2022/05/12 06:26:09;;;;;;;7.70;1.88;;;18.60;61.80;;;;;;5081706;28;20107;-50
2022/05/12 06:28:35;;;;;;;6.10;2.33;;;19.10;60.00;;;;;;5089411;28;20035;-58
2022/05/12 06:31:00;;;;;;;4.47;1.58;;;19.30;58.70;;;;;;5080098;28;20032;-54
2022/05/12 06:33:26;;;;;;;4.00;1.90;;;19.60;62.00;;;;;;5073054;28;20068;-49
2022/05/12 06:35:55;;;;;;;8.93;1.92;;;19.80;59.10;;;;;;5071008;28;20025;-50
2022/05/12 06:38:21;;;;;;;5.82;1.90;;;20.20;61.00;;;;;;5083896;28;20020;-42
2022/05/12 06:40:47;;;;;;;6.93;1.90;;;20.70;58.50;;;;;;5088608;28;20037;-53
2022/05/12 06:43:13;;;;;;;6.22;1.75;;;21.00;58.10;;;;;;5111580;28;20392;-38
2022/05/12 06:45:40;;;;;;;5.75;1.67;;;21.30;55.10;;;;;;5111223;28;20020;-38
2022/05/12 06:48:07;;;;;;;8.07;2.00;;;21.50;55.00;;;;;;5091992;28;20468;-40
2022/05/12 06:50:32;;;;;;;8.32;2.10;;;21.10;53.20;;;;;;5073756;28;20065;-43
2022/05/12 06:52:58;;;;;;;7.18;2.47;;;21.40;55.30;;;;;;5083201;28;20392;-48
2022/05/12 06:55:27;;;;;;;9.35;2.13;;;21.90;56.20;;;;;;5086219;28;20060;-48
2022/05/12 06:57:53;;;;;;;7.38;1.70;;;22.00;52.00;;;;;;5092534;28;20019;-46
2022/05/12 07:00:20;;;;;;;11.48;1.95;;;22.30;53.80;;;;;;5086492;28;20036;-38
2022/05/12 07:02:47;;;;;;;7.22;1.65;;;22.30;51.50;;;;;;5071587;28;20452;-55
2022/05/12 07:05:19;;;;;;;4.90;1.60;;;22.60;52.20;;;;;;5071194;28;20385;-48
2022/05/12 07:07:45;;;;;;;7.53;1.50;;;22.30;51.70;;;;;;5086554;28;20019;-55
2022/05/12 07:10:13;;;;;;;7.95;1.90;;;22.30;57.30;;;;;;5096855;28;20077;-50
2022/05/12 07:12:41;;;;;;;7.82;2.03;;;22.70;55.60;;;;;;5091635;28;20024;-59
2022/05/12 07:15:08;;;;;;;8.68;2.20;;;22.40;52.30;;;;;;5090766;28;20488;-49
2022/05/12 07:17:37;;;;;;;10.65;2.13;;;22.50;52.30;;;;;;5086838;28;20064;-53
2022/05/12 07:28:18;;;;;;;11.43;3.50;;;21.30;55.70;;;;;;5085812;28;20508;-49
2022/05/12 07:31:02;;;;;;;8.95;2.13;;;21.10;56.60;;;;;;5075043;28;20029;-51
2022/05/12 07:33:30;;;;;;;8.98;1.98;;;21.00;54.80;;;;;;5073816;28;20093;-44
2022/05/12 07:35:56;;;;;;;6.63;1.85;;;21.10;56.40;;;;;;5070285;28;20032;-59
2022/05/12 07:38:22;;;;;;;7.38;2.22;;;21.10;59.30;;;;;;5083291;28;20020;-52
2022/05/12 07:40:47;;;;;;;9.48;2.30;;;21.30;59.20;;;;;;5073251;28;20380;-57
2022/05/12 07:43:13;;;;;;;6.30;1.83;;;21.50;57.70;;;;;;5085102;28;20032;-56
2022/05/12 07:45:40;;;;;;;5.35;1.90;;;21.40;56.80;;;;;;5079676;28;20086;-53
2022/05/12 07:48:06;;;;;;;6.57;1.90;;;21.60;59.30;;;;;;5075532;28;20055;-46
2022/05/12 07:50:31;;;;;;;9.45;1.60;;;21.80;57.10;;;;;;5077332;28;20024;-51
2022/05/12 07:52:57;;;;;;;8.07;2.15;;;21.90;56.70;;;;;;5089095;28;20550;-49
2022/05/12 07:55:23;;;;;;;7.57;2.20;;;21.90;56.20;;;;;;5090598;28;20032;-50
2022/05/12 07:57:50;;;;;;;7.85;1.88;;;22.50;58.10;;;;;;5083235;28;20518;-49
2022/05/12 08:00:16;;;;;;;7.22;1.50;;;22.80;53.30;;;;;;5083778;28;20202;-54
2022/05/12 08:02:42;;;;;;;10.25;2.10;;;23.10;54.10;;;;;;5079865;28;20024;-53
2022/05/12 08:05:09;;;;;;;9.38;1.77;;;23.10;52.10;;;;;;5088617;28;20436;-53
2022/05/12 08:07:35;;;;;;;7.80;1.90;;;22.80;51.50;;;;;;5088922;28;20110;-50
2022/05/12 08:10:02;;;;;;;7.10;1.77;;;22.80;50.50;;;;;;5072911;28;20389;-51
2022/05/12 08:12:29;;;;;;;7.70;1.60;;;22.90;53.60;;;;;;5089810;28;20465;-55
2022/05/12 08:14:55;;;;;;;5.43;1.77;;;23.50;51.00;;;;;;5082382;28;20023;-40
2022/05/12 08:17:20;;;;;;;8.15;1.73;;;24.10;55.50;;;;;;5090343;28;20110;-47
2022/05/12 08:19:46;;;;;;;8.52;1.98;;;24.40;54.70;;;;;;5093831;28;20385;-45
2022/05/12 08:22:12;;;;;;;6.38;1.50;;;25.00;47.50;;;;;;5085801;28;20028;-50
2022/05/12 08:24:37;;;;;;;7.03;1.75;;;25.00;44.60;;;;;;5090231;28;20016;-44
2022/05/12 08:27:03;;;;;;;6.65;1.52;;;25.50;49.60;;;;;;5101304;28;20024;-43
2022/05/12 08:29:29;;;;;;;7.55;1.58;;;26.00;47.60;;;;;;5089940;28;20027;-43
2022/05/12 08:31:55;;;;;;;5.78;1.50;;;26.00;45.80;;;;;;5089778;28;20012;-47
2022/05/12 08:34:20;;;;;;;7.10;1.40;;;26.20;50.00;;;;;;5074439;28;20116;-56
2022/05/12 08:36:49;;;;;;;7.00;1.40;;;26.60;45.60;;;;;;5076190;28;20401;-51
2022/05/12 08:39:15;;;;;;;10.15;1.83;;;25.50;48.30;;;;;;5070196;28;20024;-58
2022/05/12 08:42:01;;;;;;;6.20;1.48;;;26.30;46.70;;;;;;5076794;28;20040;-53
2022/05/12 08:44:31;;;;;;;5.18;1.38;;;26.60;43.30;;;;;;5087578;28;20054;-56
2022/05/12 08:47:03;;;;;;;6.68;1.60;;;26.70;48.00;;;;;;5078091;28;20477;-52
2022/05/12 08:49:37;;;;;;;5.20;1.45;;;26.90;46.30;;;;;;5084214;28;20024;-60
2022/05/12 08:52:06;;;;;;;6.32;1.45;;;26.90;41.70;;;;;;5078879;28;20500;-54
2022/05/12 08:54:35;;;;;;;6.25;1.52;;;26.70;39.10;;;;;;5086663;28;20492;-48
2022/05/12 08:57:05;;;;;;;5.25;1.30;;;26.80;47.00;;;;;;5083057;28;20051;-47
2022/05/12 08:59:32;;;;;;;6.70;1.60;;;26.80;43.60;;;;;;5087316;28;20030;-49
2022/05/12 09:02:20;;;;;;;7.72;1.40;;;27.50;45.20;;;;;;5092886;28;20028;-50
2022/05/12 09:05:00;;;;;;;5.13;1.70;;;28.10;45.20;;;;;;5079547;28;20085;-52
2022/05/12 09:07:40;;;;;;;6.55;1.50;;;27.70;40.90;;;;;;5081665;28;20082;-40
2022/05/12 09:10:29;;;;;;;7.60;1.55;;;27.30;40.70;;;;;;5092821;28;20499;-39
2022/05/12 09:13:09;;;;;;;5.20;1.30;;;26.10;39.30;;;;;;5093466;28;20419;-40
2022/05/12 09:15:37;;;;;;;5.35;1.55;;;25.10;45.10;;;;;;5076092;28;20032;-50
2022/05/12 09:18:16;;;;;;;7.65;1.52;;;24.90;47.00;;;;;;5083987;28;20085;-47
2022/05/12 09:20:43;;;;;;;5.25;1.20;;;24.20;43.90;;;;;;5085267;28;20523;-54
2022/05/12 09:23:09;;;;;;;6.13;1.52;;;24.20;46.70;;;;;;5088653;28;20027;-50
2022/05/12 09:25:39;;;;;;;6.05;1.50;;;24.30;50.50;;;;;;5081677;28;20024;-48
2022/05/12 09:28:35;;;;;;;7.53;1.60;;;23.70;44.50;;;;;;5084151;28;20078;-50
2022/05/12 09:31:12;;;;;;;7.93;1.73;;;23.50;47.10;;;;;;5085757;28;20036;-43
2022/05/12 09:33:39;;;;;;;6.07;1.40;;;23.70;47.50;;;;;;5090189;28;20036;-46
2022/05/12 09:36:08;;;;;;;5.15;1.60;;;24.10;47.60;;;;;;5085824;28;20040;-46
2022/05/12 09:38:43;;;;;;;6.70;1.45;;;24.30;42.90;;;;;;5087545;28;20062;-51
2022/05/12 09:41:21;;;;;;;4.55;1.30;;;23.90;43.30;;;;;;5084520;28;20039;-51
2022/05/12 09:43:50;;;;;;;7.20;1.40;;;24.20;42.70;;;;;;5083106;28;20074;-52
2022/05/12 09:46:16;;;;;;;6.32;1.20;;;24.10;45.70;;;;;;5088305;28;20033;-50
2022/05/12 09:48:43;;;;;;;6.72;1.33;;;23.90;46.10;;;;;;5088779;28;20022;-53
2022/05/12 09:51:40;;;;;;;4.55;1.35;;;22.90;43.10;;;;;;5082666;28;20198;-51
2022/05/12 09:54:29;;;;;;;6.78;1.60;;;22.10;47.80;;;;;;5080520;28;20028;-48
2022/05/12 09:56:57;;;;;;;6.53;1.30;;;22.50;47.90;;;;;;5085319;28;20032;-61
2022/05/12 09:59:26;;;;;;;6.25;1.58;;;22.00;46.60;;;;;;5090484;28;20485;-50
2022/05/12 10:01:56;;;;;;;8.50;1.73;;;21.30;51.20;;;;;;5083488;28;20024;-54
2022/05/12 10:10:23;;;;;;;6.68;1.33;;;19.70;51.20;;;;;;5080422;28;20128;-50
2022/05/12 10:13:02;;;;;;;7.72;1.60;;;19.70;57.40;;;;;;5087508;28;20024;-56
2022/05/12 10:15:39;;;;;;;9.45;2.15;;;19.60;59.20;;;;;;5084753;28;20093;-49
2022/05/12 10:18:24;;;;;;;8.27;1.58;;;19.80;58.20;;;;;;5082224;28;20028;-47
2022/05/12 10:20:53;;;;;;;7.75;1.40;;;20.10;54.90;;;;;;5090551;28;20024;-53
2022/05/12 10:23:38;;;;;;;5.82;2.00;;;20.10;56.60;;;;;;5088542;28;20013;-45
2022/05/12 10:26:44;;;;;;;7.22;1.80;;;19.70;52.80;;;;;;5085343;28;20059;-52
2022/05/12 10:29:50;;;;;;;5.18;1.35;;;19.30;57.30;;;;;;5066851;28;20064;-50
2022/05/12 10:32:54;;;;;;;6.90;1.60;;;20.20;58.20;;;;;;5084190;28;20032;-45
2022/05/12 10:35:44;;;;;;;7.45;1.63;;;20.50;57.80;;;;;;5066860;28;20105;-49
2022/05/12 10:38:35;;;;;;;5.55;1.20;;;20.20;54.00;;;;;;5086222;28;20484;-49
2022/05/12 10:41:12;;;;;;;5.78;1.30;;;19.70;54.50;;;;;;5085193;28;20050;-52
2022/05/12 10:43:56;;;;;;;8.32;1.48;;;19.30;53.50;;;;;;5089070;28;20024;-55
2022/05/12 10:46:29;;;;;;;6.93;2.00;;;19.10;58.60;;;;;;5092039;28;20052;-52
2022/05/12 10:49:02;;;;;;;11.45;2.67;;;18.90;60.40;;;;;;5087845;28;20081;-51
2022/05/12 10:51:33;;;;;;;16.90;2.40;;;18.60;60.20;;;;;;5090407;28;20036;-46
2022/05/12 10:54:12;;;;;;;12.65;2.63;;;18.30;61.10;;;;;;5081040;28;20029;-61
2022/05/12 10:56:47;;;;;;;13.38;2.30;;;18.10;64.70;;;;;;5087170;28;20043;-49
2022/05/12 10:59:34;;;;;;;12.35;2.40;;;18.10;63.30;;;;;;5090065;28;20028;-45
2022/05/12 11:02:14;;;;;;;12.23;2.80;;;18.80;67.40;;;;;;5087844;28;20028;-52
2022/05/12 11:04:51;;;;;;;12.82;2.85;;;20.00;63.20;;;;;;5090026;28;20028;-53
2022/05/12 11:07:28;;;;;;;11.43;2.60;;;20.40;57.70;;;;;;5088060;28;20035;-51
2022/05/12 11:10:14;;;;;;;7.72;1.98;;;20.40;57.50;;;;;;5088203;28;20369;-47
2022/05/12 11:12:43;;;;;;;13.73;2.70;;;20.10;57.10;;;;;;5084688;28;20016;-53
2022/05/12 11:15:11;;;;;;;;;;;19.90;60.20;;;;;;5089060;28;20031;-47
2022/05/12 11:18:13;;;;;;;15.88;2.70;;;19.80;58.60;;;;;;5083381;28;19904;-40
2022/05/12 11:20:44;;;;;;;13.30;2.40;;;19.20;60.10;;;;;;5078382;28;20056;-41
2022/05/12 11:23:32;;;;;;;12.05;2.30;;;18.90;61.10;;;;;;5078963;28;20421;-51
2022/05/12 11:26:43;;;;;;;8.43;2.00;;;18.60;62.50;;;;;;5078543;28;20476;-48
2022/05/12 11:29:48;;;;;;;11.52;2.30;;;18.20;63.90;;;;;;5055663;28;20111;-51
2022/05/12 11:32:45;;;;;;;12.05;2.22;;;17.70;65.40;;;;;;5083569;28;20027;-46
2022/05/12 11:35:18;;;;;;;10.18;2.22;;;17.40;66.30;;;;;;5085418;28;20045;-49
2022/05/12 11:37:44;;;;;;;12.90;2.05;;;17.30;66.20;;;;;;5086574;28;20040;-46
2022/05/12 11:40:11;;;;;;;9.02;2.03;;;17.70;70.00;;;;;;5088473;28;20062;-48
2022/05/12 11:45:47;;;;;;;9.10;1.60;;;18.10;64.10;;;;;;5070580;28;20401;-50
2022/05/12 11:48:31;;;;;;;9.65;2.00;;;18.10;65.60;;;;;;5083389;28;20469;-51
2022/05/12 11:51:24;;;;;;;13.27;2.28;;;18.10;64.70;;;;;;5077354;28;20118;-45
2022/05/12 11:54:00;;;;;;;8.70;1.88;;;18.20;64.50;;;;;;5086608;28;20028;-54
2022/05/12 11:56:50;;;;;;;12.18;2.30;;;18.10;65.00;;;;;;5088742;28;20036;-46
2022/05/12 11:59:16;;;;;;;;;;;18.20;65.60;;;;;;5085202;28;20023;-41
2022/05/12 12:01:41;;;;;;;8.05;1.83;;;18.10;63.50;;;;;;5088154;28;19912;-55
2022/05/12 12:04:13;;;;;;;10.85;1.90;;;18.10;62.10;;;;;;5084079;28;20436;-50
2022/05/12 12:06:45;;;;;;;10.35;1.90;;;18.20;63.40;;;;;;5086309;28;20565;-48
2022/05/12 12:09:25;;;;;;;17.27;2.40;;;18.30;63.70;;;;;;5086302;28;20047;-56
2022/05/12 12:11:52;;;;;;;8.18;1.77;;;18.40;62.60;;;;;;5086522;28;20032;-50
2022/05/12 12:14:43;;;;;;;9.02;2.38;;;18.40;63.30;;;;;;5079275;28;20016;-40
2022/05/12 12:17:38;;;;;;;7.60;1.80;;;18.40;62.00;;;;;;5089373;28;20040;-46
2022/05/12 12:20:10;;;;;;;8.65;1.92;;;18.20;62.30;;;;;;5085051;28;20028;-52
2022/05/12 12:22:48;;;;;;;9.25;2.33;;;18.20;61.30;;;;;;5080487;28;20020;-48
2022/05/12 12:25:36;;;;;;;9.85;1.65;;;18.20;61.50;;;;;;5080654;28;20016;-46
2022/05/12 12:28:09;;;;;;;10.27;1.83;;;18.50;61.40;;;;;;5083961;28;20032;-46
2022/05/12 12:30:53;;;;;;;7.40;1.38;;;18.70;60.20;;;;;;5094630;28;20020;-50
2022/05/12 12:33:24;;;;;;;11.30;1.73;;;19.10;57.80;;;;;;5084400;28;20051;-45
2022/05/12 12:36:00;;;;;;;5.25;1.50;;;19.20;59.50;;;;;;5092314;28;20593;-42
2022/05/12 12:38:44;;;;;;;8.75;1.50;;;19.60;59.90;;;;;;5089982;28;20032;-44
2022/05/12 12:41:13;;;;;;;7.00;1.55;;;19.70;59.00;;;;;;5083476;28;20032;-52
2022/05/12 12:43:42;;;;;;;8.73;1.60;;;20.10;58.00;;;;;;5084477;28;20432;-42
2022/05/12 12:46:18;;;;;;;7.55;1.50;;;20.30;56.80;;;;;;5092111;28;20039;-42
2022/05/12 12:49:28;;;;;;;10.48;1.58;;;20.40;56.90;;;;;;5089552;28;20031;-42
2022/05/12 12:52:03;;;;;;;9.05;1.52;;;20.70;59.50;;;;;;5077932;28;20057;-46
2022/05/12 12:57:19;;;;;;;10.75;1.88;;;20.80;55.40;;;;;;5091799;28;20039;-56
2022/05/12 13:00:23;;;;;;;6.10;1.67;;;20.70;56.40;;;;;;5097039;28;20070;-55
2022/05/12 13:02:55;;;;;;;5.15;1.50;;;20.80;54.40;;;;;;5090513;28;20115;-57
2022/05/12 13:05:22;;;;;;;7.78;1.70;;;20.80;54.50;;;;;;5087381;28;20427;-42
2022/05/12 13:07:56;;;;;;;5.30;1.35;;;20.90;53.70;;;;;;5087350;28;20110;-54
2022/05/12 13:10:22;;;;;;;13.18;1.90;;;20.70;52.40;;;;;;5084977;28;20425;-51
2022/05/12 13:12:59;;;;;;;8.18;1.63;;;20.80;54.20;;;;;;5086582;28;20694;-58
2022/05/12 13:15:25;;;;;;;9.35;2.08;;;20.80;52.00;;;;;;5089586;28;20092;-48
2022/05/12 13:17:56;;;;;;;8.73;1.50;;;20.80;51.40;;;;;;5088505;28;20621;-55
2022/05/12 13:20:26;;;;;;;7.05;1.70;;;20.70;51.40;;;;;;5090760;28;20028;-49
2022/05/12 13:23:26;;;;;;;7.50;1.55;;;20.50;51.80;;;;;;5090919;28;20103;-49
2022/05/12 13:25:52;;;;;;;7.35;1.73;;;20.10;54.70;;;;;;5086358;28;20143;-42
2022/05/12 13:28:29;;;;;;;9.30;2.22;;;19.80;52.20;;;;;;5083822;28;20020;-50
2022/05/12 13:31:13;;;;;;;7.15;1.80;;;19.70;53.70;;;;;;5088418;28;20016;-48
2022/05/12 13:33:55;;;;;;;7.85;1.70;;;19.40;53.70;;;;;;5090004;28;20044;-43